Time;durP1;ratioP1;P1;durP2;ratioP2;P2;SDS_P1;SDS_P2;PMS_P1;PMS_P2;Temp;Humidity;BMP_temperature;BMP_pressure;BME280_temperature;BME280_humidity;BME280_pressure;Samples;Min_cycle;Max_cycle;Signal;HPM_P1;HPM_P2
2023/12/06 00:02:02;;;;;;;42.78;25.77;;;;;;;;;;5051522;28;20040;-88
2023/12/06 00:04:30;;;;;;;44.80;25.80;;;;;;;;;;5051883;28;20060;-87
2023/12/06 00:06:56;;;;;;;41.38;25.50;;;;;;;;;;5067950;28;20110;-88
2023/12/06 00:09:22;;;;;;;42.15;25.52;;;;;;;;;;5068655;28;20048;-88
2023/12/06 00:11:48;;;;;;;38.90;24.48;;;;;;;;;;5067972;28;20044;-88
2023/12/06 00:14:14;;;;;;;42.53;26.17;;;;;;;;;;5050585;28;20053;-87
2023/12/06 00:16:40;;;;;;;50.60;26.58;;;;;;;;;;5068488;28;20048;-88
2023/12/06 00:19:07;;;;;;;45.55;27.27;;;;;;;;;;5067897;28;20037;-88
2023/12/06 00:21:33;;;;;;;44.08;26.50;;;;;;;;;;5066226;28;20048;-88
2023/12/06 00:23:59;;;;;;;42.92;26.05;;;;;;;;;;5067807;28;20140;-88
2023/12/06 00:26:25;;;;;;;46.25;26.40;;;;;;;;;;5067817;28;20181;-87
2023/12/06 00:28:53;;;;;;;44.95;25.35;;;;;;;;;;5067851;28;20036;-88
2023/12/06 00:31:19;;;;;;;43.13;25.10;;;;;;;;;;5067325;28;20064;-87
2023/12/06 00:33:45;;;;;;;46.22;26.50;;;;;;;;;;5067732;28;20157;-88
2023/12/06 00:36:11;;;;;;;45.63;25.50;;;;;;;;;;5050519;28;20513;-88
2023/12/06 00:38:37;;;;;;;46.38;26.48;;;;;;;;;;5067103;28;20041;-87
2023/12/06 00:41:03;;;;;;;47.35;27.73;;;;;;;;;;5067839;28;20048;-88
2023/12/06 00:43:29;;;;;;;48.28;26.67;;;;;;;;;;5066647;28;20059;-87
2023/12/06 00:45:55;;;;;;;49.38;28.38;;;;;;;;;;5067609;28;20044;-88
2023/12/06 00:48:21;;;;;;;45.78;27.08;;;;;;;;;;5067068;28;20060;-87
2023/12/06 00:50:47;;;;;;;44.25;27.73;;;;;;;;;;5066421;28;20498;-87
2023/12/06 00:53:13;;;;;;;46.15;26.85;;;;;;;;;;5066108;28;20045;-86
2023/12/06 00:55:39;;;;;;;46.15;27.95;;;;;;;;;;5051752;28;20063;-86
2023/12/06 00:58:05;;;;;;;45.50;27.45;;;;;;;;;;5036136;28;20495;-88
2023/12/06 01:00:31;;;;;;;44.92;26.27;;;;;;;;;;5052768;28;20119;-87
2023/12/06 01:02:57;;;;;;;48.95;28.52;;;;;;;;;;5067240;28;20563;-88
2023/12/06 01:05:23;;;;;;;47.90;26.52;;;;;;;;;;5065930;28;20639;-88
2023/12/06 01:07:49;;;;;;;44.63;26.65;;;;;;;;;;5066676;28;20048;-88
2023/12/06 01:10:16;;;;;;;50.47;28.73;;;;;;;;;;5050652;28;20071;-88
2023/12/06 01:12:42;;;;;;;45.85;27.73;;;;;;;;;;5067943;28;20049;-88
2023/12/06 01:15:09;;;;;;;47.72;27.85;;;;;;;;;;5068607;28;20473;-87
2023/12/06 01:17:35;;;;;;;47.08;27.23;;;;;;;;;;5067256;28;20117;-87
2023/12/06 01:20:01;;;;;;;48.83;28.27;;;;;;;;;;5067976;28;20049;-87
2023/12/06 01:22:27;;;;;;;47.08;28.15;;;;;;;;;;5067728;28;20552;-87
2023/12/06 01:24:59;;;;;;;47.80;27.08;;;;;;;;;;5054328;28;20059;-87
2023/12/06 01:27:25;;;;;;;48.72;27.85;;;;;;;;;;5071120;28;20067;-87
2023/12/06 01:29:51;;;;;;;44.83;27.38;;;;;;;;;;5070972;28;20134;-87
2023/12/06 01:32:17;;;;;;;51.35;28.25;;;;;;;;;;5070861;28;20141;-88
2023/12/06 01:34:43;;;;;;;48.50;28.65;;;;;;;;;;5071692;28;20087;-88
2023/12/06 01:37:09;;;;;;;49.40;27.92;;;;;;;;;;5070340;28;20040;-87
2023/12/06 01:39:35;;;;;;;50.70;28.77;;;;;;;;;;5059125;28;20053;-87
2023/12/06 01:42:01;;;;;;;50.22;27.77;;;;;;;;;;5051055;28;20462;-88
2023/12/06 01:44:27;;;;;;;49.70;27.83;;;;;;;;;;5050804;28;20051;-87
2023/12/06 01:46:53;;;;;;;48.25;26.27;;;;;;;;;;5050879;28;20041;-87
2023/12/06 01:49:20;;;;;;;48.28;28.27;;;;;;;;;;5050667;28;20113;-87
2023/12/06 01:51:46;;;;;;;51.45;26.83;;;;;;;;;;5058493;28;20120;-87
2023/12/06 01:54:13;;;;;;;50.78;28.40;;;;;;;;;;5053902;28;20050;-87
2023/12/06 01:56:41;;;;;;;53.22;28.10;;;;;;;;;;5042429;28;20124;-88
2023/12/06 01:59:07;;;;;;;53.40;28.38;;;;;;;;;;5084322;28;20132;-88
2023/12/06 02:01:34;;;;;;;52.00;28.80;;;;;;;;;;5085887;28;20044;-88
2023/12/06 02:04:00;;;;;;;52.78;27.83;;;;;;;;;;5068977;28;20075;-87
2023/12/06 02:06:26;;;;;;;51.00;27.05;;;;;;;;;;5072106;28;20040;-88
2023/12/06 02:08:53;;;;;;;51.13;28.35;;;;;;;;;;5073870;28;20555;-87
2023/12/06 02:11:19;;;;;;;49.95;27.33;;;;;;;;;;5074100;28;20074;-86
2023/12/06 02:13:45;;;;;;;52.35;29.20;;;;;;;;;;5064553;28;20494;-87
2023/12/06 02:16:11;;;;;;;50.53;27.20;;;;;;;;;;5065731;28;20040;-87
2023/12/06 02:18:37;;;;;;;49.50;26.02;;;;;;;;;;5073969;28;20052;-87
2023/12/06 02:21:03;;;;;;;54.50;26.70;;;;;;;;;;5074109;28;20036;-87
2023/12/06 02:23:31;;;;;;;47.80;26.65;;;;;;;;;;5070143;28;20048;-87
2023/12/06 02:25:57;;;;;;;52.33;28.83;;;;;;;;;;5070908;28;20053;-87
2023/12/06 02:28:23;;;;;;;50.55;27.52;;;;;;;;;;5070884;28;20490;-86
2023/12/06 02:30:49;;;;;;;51.22;26.90;;;;;;;;;;5057211;28;20045;-87
2023/12/06 02:33:15;;;;;;;51.55;26.98;;;;;;;;;;5068572;28;20443;-87
2023/12/06 02:35:49;;;;;;;46.45;25.48;;;;;;;;;;5070796;28;20092;-87
2023/12/06 02:38:19;;;;;;;48.85;27.15;;;;;;;;;;5053224;28;20052;-86
2023/12/06 02:40:47;;;;;;;47.35;26.98;;;;;;;;;;5053867;28;20158;-88
2023/12/06 02:43:13;;;;;;;46.72;24.83;;;;;;;;;;5069881;28;20057;-88
2023/12/06 02:45:39;;;;;;;43.80;24.38;;;;;;;;;;5053268;28;20991;-87
2023/12/06 02:48:05;;;;;;;48.08;26.75;;;;;;;;;;5070682;28;20569;-87
2023/12/06 02:50:31;;;;;;;41.28;24.23;;;;;;;;;;5066525;28;20076;-88
2023/12/06 02:52:58;;;;;;;48.38;27.05;;;;;;;;;;5049646;28;20638;-88
2023/12/06 02:55:24;;;;;;;48.50;26.60;;;;;;;;;;5065209;28;20170;-87
2023/12/06 02:57:50;;;;;;;43.30;25.10;;;;;;;;;;5069469;28;20449;-86
2023/12/06 03:00:16;;;;;;;47.50;26.50;;;;;;;;;;5065651;28;20052;-88
2023/12/06 03:02:42;;;;;;;45.38;25.55;;;;;;;;;;5059444;28;20403;-88
2023/12/06 03:05:09;;;;;;;41.30;23.90;;;;;;;;;;5062606;28;20055;-88
2023/12/06 03:07:35;;;;;;;43.58;25.52;;;;;;;;;;5070168;28;20087;-88
2023/12/06 03:10:03;;;;;;;45.20;23.48;;;;;;;;;;5069163;28;20513;-87
2023/12/06 03:12:29;;;;;;;48.00;25.95;;;;;;;;;;5068224;28;20055;-88
2023/12/06 03:14:55;;;;;;;42.03;25.52;;;;;;;;;;5069382;28;20055;-86
2023/12/06 03:17:21;;;;;;;39.13;23.83;;;;;;;;;;5069426;28;20513;-87
2023/12/06 03:19:47;;;;;;;37.70;22.83;;;;;;;;;;5068600;28;20502;-87
2023/12/06 03:22:13;;;;;;;39.05;24.52;;;;;;;;;;5068305;28;20067;-87
2023/12/06 03:24:39;;;;;;;40.20;23.58;;;;;;;;;;5067971;28;20052;-87
2023/12/06 03:27:06;;;;;;;41.08;23.38;;;;;;;;;;5069141;28;20402;-88
2023/12/06 03:29:32;;;;;;;38.30;23.63;;;;;;;;;;5060644;28;20068;-87
2023/12/06 03:31:58;;;;;;;36.40;22.33;;;;;;;;;;5050854;28;20459;-88
2023/12/06 03:34:24;;;;;;;42.83;24.63;;;;;;;;;;5064381;28;20052;-87
2023/12/06 03:36:50;;;;;;;44.63;26.30;;;;;;;;;;5049467;28;20045;-87
2023/12/06 03:39:17;;;;;;;42.03;24.85;;;;;;;;;;5049500;28;20044;-87
2023/12/06 03:41:43;;;;;;;42.30;25.05;;;;;;;;;;5044177;28;20123;-88
2023/12/06 03:44:09;;;;;;;40.75;24.35;;;;;;;;;;5068753;28;20132;-87
2023/12/06 03:46:35;;;;;;;38.75;22.55;;;;;;;;;;5052440;28;20466;-87
2023/12/06 03:49:04;;;;;;;40.00;23.70;;;;;;;;;;5062460;28;20517;-87
2023/12/06 03:51:30;;;;;;;42.88;25.40;;;;;;;;;;5031421;28;20052;-86
2023/12/06 03:53:57;;;;;;;43.03;25.25;;;;;;;;;;5034848;28;20033;-85
2023/12/06 03:56:23;;;;;;;39.08;24.08;;;;;;;;;;5068046;28;20539;-86
2023/12/06 03:58:49;;;;;;;40.75;24.15;;;;;;;;;;5066094;28;20040;-86
2023/12/06 04:01:15;;;;;;;39.80;23.63;;;;;;;;;;5035971;28;20048;-86
2023/12/06 04:03:42;;;;;;;38.00;23.15;;;;;;;;;;5067917;28;20107;-86
2023/12/06 04:06:08;;;;;;;42.22;24.58;;;;;;;;;;5051024;28;20481;-86
2023/12/06 04:08:34;;;;;;;41.92;24.05;;;;;;;;;;5045756;28;20073;-86
2023/12/06 04:11:00;;;;;;;39.50;23.48;;;;;;;;;;5072922;28;20185;-86
2023/12/06 04:13:26;;;;;;;41.25;24.63;;;;;;;;;;5067154;28;20052;-86
2023/12/06 04:15:52;;;;;;;40.30;24.92;;;;;;;;;;5067000;28;20487;-86
2023/12/06 04:18:18;;;;;;;39.90;23.75;;;;;;;;;;5067670;28;20043;-85
2023/12/06 04:20:44;;;;;;;40.33;24.58;;;;;;;;;;5050469;28;20040;-86
2023/12/06 04:23:10;;;;;;;40.13;23.33;;;;;;;;;;5067143;28;20048;-86
2023/12/06 04:25:37;;;;;;;40.22;23.27;;;;;;;;;;5061656;28;20036;-85
2023/12/06 04:28:03;;;;;;;38.47;24.60;;;;;;;;;;5066475;28;20080;-85
2023/12/06 04:30:29;;;;;;;37.90;22.77;;;;;;;;;;5065742;28;20048;-85
2023/12/06 04:32:55;;;;;;;37.30;22.45;;;;;;;;;;5067025;28;20128;-85
2023/12/06 04:35:21;;;;;;;33.70;21.65;;;;;;;;;;5064750;28;20053;-84
2023/12/06 04:37:47;;;;;;;34.78;23.23;;;;;;;;;;5050653;28;20494;-86
2023/12/06 04:40:14;;;;;;;35.65;23.05;;;;;;;;;;5066450;28;20044;-86
2023/12/06 04:42:40;;;;;;;37.03;22.85;;;;;;;;;;5050734;28;20558;-86
2023/12/06 04:45:06;;;;;;;37.17;22.77;;;;;;;;;;5067584;28;20052;-86
2023/12/06 04:47:32;;;;;;;34.47;21.33;;;;;;;;;;5060071;28;20452;-86
2023/12/06 04:49:58;;;;;;;39.20;22.38;;;;;;;;;;5068036;28;20701;-86
2023/12/06 04:52:24;;;;;;;34.92;22.52;;;;;;;;;;5066964;28;20139;-87
2023/12/06 04:54:51;;;;;;;33.47;22.67;;;;;;;;;;5051464;28;20131;-85
2023/12/06 04:57:17;;;;;;;34.03;20.95;;;;;;;;;;5051020;28;20044;-86
2023/12/06 04:59:43;;;;;;;31.75;20.30;;;;;;;;;;5068270;28;20045;-86
2023/12/06 05:02:09;;;;;;;31.33;20.73;;;;;;;;;;5067787;28;20720;-87
2023/12/06 05:04:35;;;;;;;31.98;20.67;;;;;;;;;;5066950;28;20053;-86
2023/12/06 05:07:01;;;;;;;33.00;21.10;;;;;;;;;;5050635;28;20856;-86
2023/12/06 05:09:28;;;;;;;32.17;19.25;;;;;;;;;;5068337;28;20048;-86
2023/12/06 05:11:54;;;;;;;32.85;20.90;;;;;;;;;;5068338;28;20127;-86
2023/12/06 05:14:20;;;;;;;34.58;21.10;;;;;;;;;;5068315;28;20501;-86
2023/12/06 05:16:46;;;;;;;32.63;20.60;;;;;;;;;;5068215;28;20055;-87
2023/12/06 05:19:12;;;;;;;31.83;19.30;;;;;;;;;;5067346;28;20505;-86
2023/12/06 05:21:38;;;;;;;30.52;19.38;;;;;;;;;;5067432;28;20178;-86
2023/12/06 05:24:04;;;;;;;29.90;19.15;;;;;;;;;;5067900;28;20059;-86
2023/12/06 05:26:30;;;;;;;29.90;19.00;;;;;;;;;;5067817;28;20131;-86
2023/12/06 05:28:58;;;;;;;29.67;19.65;;;;;;;;;;5051686;28;20045;-87
2023/12/06 05:31:24;;;;;;;28.38;18.58;;;;;;;;;;5050836;28;20185;-86
2023/12/06 05:33:50;;;;;;;29.58;19.45;;;;;;;;;;5067159;28;20131;-85
2023/12/06 05:36:16;;;;;;;30.65;19.45;;;;;;;;;;5049372;28;20067;-86
2023/12/06 05:38:42;;;;;;;29.25;19.42;;;;;;;;;;5067017;28;20141;-86
2023/12/06 05:41:08;;;;;;;26.25;17.83;;;;;;;;;;5071478;28;20470;-86
2023/12/06 05:43:34;;;;;;;26.55;18.40;;;;;;;;;;5069136;28;20040;-86
2023/12/06 05:46:00;;;;;;;25.80;17.58;;;;;;;;;;5034596;28;20454;-86
2023/12/06 05:48:26;;;;;;;27.40;19.17;;;;;;;;;;5051528;28;20049;-85
2023/12/06 05:50:52;;;;;;;27.85;18.67;;;;;;;;;;5069379;28;20044;-86
2023/12/06 05:53:18;;;;;;;26.17;18.20;;;;;;;;;;5069568;28;20390;-87
2023/12/06 05:55:44;;;;;;;26.13;19.20;;;;;;;;;;5051781;28;20047;-87
2023/12/06 05:58:13;;;;;;;25.70;18.17;;;;;;;;;;5049601;28;20404;-87
2023/12/06 06:00:39;;;;;;;28.38;19.55;;;;;;;;;;5054143;28;20559;-86
2023/12/06 06:03:05;;;;;;;27.15;19.60;;;;;;;;;;5054261;28;20119;-86
2023/12/06 06:05:31;;;;;;;30.92;20.33;;;;;;;;;;5071566;28;20054;-86
2023/12/06 06:07:59;;;;;;;28.27;19.83;;;;;;;;;;5071268;28;20045;-85
2023/12/06 06:10:25;;;;;;;27.23;18.75;;;;;;;;;;5053439;28;20051;-86
2023/12/06 06:12:51;;;;;;;28.95;19.25;;;;;;;;;;5054216;28;20389;-86
2023/12/06 06:15:17;;;;;;;29.38;19.80;;;;;;;;;;5054079;28;20562;-86
2023/12/06 06:17:43;;;;;;;28.85;19.20;;;;;;;;;;5070554;28;20094;-86
2023/12/06 06:20:10;;;;;;;31.55;20.45;;;;;;;;;;5070934;28;20048;-86
2023/12/06 06:22:36;;;;;;;31.70;20.55;;;;;;;;;;5057012;28;20437;-86
2023/12/06 06:25:02;;;;;;;31.33;20.15;;;;;;;;;;5056955;28;20058;-86
2023/12/06 06:27:28;;;;;;;31.38;19.45;;;;;;;;;;5056918;28;20048;-86
2023/12/06 06:29:54;;;;;;;30.63;20.40;;;;;;;;;;5057629;28;20098;-86
2023/12/06 06:32:20;;;;;;;31.13;20.02;;;;;;;;;;5073848;28;20048;-86
2023/12/06 06:34:46;;;;;;;31.17;20.02;;;;;;;;;;5073742;28;20086;-86
2023/12/06 06:37:13;;;;;;;29.25;19.42;;;;;;;;;;5073896;28;20040;-86
2023/12/06 06:39:39;;;;;;;28.65;19.92;;;;;;;;;;5074446;28;20087;-86
2023/12/06 06:42:06;;;;;;;28.98;20.02;;;;;;;;;;5073987;28;20044;-86
2023/12/06 06:44:32;;;;;;;31.80;19.45;;;;;;;;;;5070479;28;20083;-86
2023/12/06 06:46:58;;;;;;;28.48;19.48;;;;;;;;;;5069450;28;20072;-85
2023/12/06 06:49:24;;;;;;;27.63;19.58;;;;;;;;;;5073342;28;20550;-85
2023/12/06 06:51:50;;;;;;;28.08;19.48;;;;;;;;;;5072291;28;20048;-84
2023/12/06 06:54:16;;;;;;;29.25;18.77;;;;;;;;;;5046080;28;20046;-83
2023/12/06 06:56:42;;;;;;;29.55;19.63;;;;;;;;;;5071769;28;20980;-84
2023/12/06 06:59:09;;;;;;;31.88;20.55;;;;;;;;;;5071326;28;20085;-86
2023/12/06 07:01:35;;;;;;;29.30;19.75;;;;;;;;;;5073678;28;20044;-85
2023/12/06 07:04:01;;;;;;;29.30;19.15;;;;;;;;;;5068928;28;20040;-86
2023/12/06 07:06:30;;;;;;;28.75;18.98;;;;;;;;;;5066337;28;20048;-86
2023/12/06 07:08:56;;;;;;;30.75;20.58;;;;;;;;;;5054536;28;20048;-85
2023/12/06 07:11:22;;;;;;;30.67;20.42;;;;;;;;;;5069179;28;20067;-85
2023/12/06 07:13:49;;;;;;;30.17;21.27;;;;;;;;;;5071361;28;20590;-85
2023/12/06 07:16:16;;;;;;;28.88;20.27;;;;;;;;;;5054876;28;20498;-84
2023/12/06 07:18:44;;;;;;;29.77;19.33;;;;;;;;;;5072100;28;20048;-85
2023/12/06 07:21:11;;;;;;;28.77;20.05;;;;;;;;;;5071977;28;20060;-86
2023/12/06 07:23:39;;;;;;;29.20;19.60;;;;;;;;;;5070699;28;20060;-86
2023/12/06 07:26:08;;;;;;;28.63;18.75;;;;;;;;;;5052163;28;20044;-88
2023/12/06 07:28:34;;;;;;;29.02;19.45;;;;;;;;;;5063654;28;20093;-86
2023/12/06 07:31:01;;;;;;;28.33;19.38;;;;;;;;;;5055202;28;20045;-86
2023/12/06 07:33:27;;;;;;;28.38;20.15;;;;;;;;;;5072546;28;20052;-86
2023/12/06 07:35:54;;;;;;;32.78;20.38;;;;;;;;;;5072055;28;20070;-87
2023/12/06 07:38:20;;;;;;;32.17;20.30;;;;;;;;;;5072023;28;20180;-88
2023/12/06 07:40:46;;;;;;;31.48;19.65;;;;;;;;;;5070366;28;20059;-85
2023/12/06 07:43:12;;;;;;;28.48;18.40;;;;;;;;;;5070992;28;20505;-84
2023/12/06 07:45:38;;;;;;;31.65;20.40;;;;;;;;;;5071361;28;20052;-84
2023/12/06 07:48:04;;;;;;;27.27;18.73;;;;;;;;;;5055422;28;20108;-85
2023/12/06 07:50:30;;;;;;;24.80;17.75;;;;;;;;;;5054763;28;20614;-84
2023/12/06 07:52:57;;;;;;;27.38;18.95;;;;;;;;;;5054015;28;20074;-84
2023/12/06 07:55:23;;;;;;;26.17;18.10;;;;;;;;;;5053619;28;20048;-83
2023/12/06 07:57:49;;;;;;;28.02;18.92;;;;;;;;;;5054740;28;20108;-84
2023/12/06 08:00:15;;;;;;;30.08;20.17;;;;;;;;;;5054637;28;20087;-84
2023/12/06 08:02:42;;;;;;;24.27;17.88;;;;;;;;;;5070801;28;20050;-84
2023/12/06 08:05:09;;;;;;;23.98;18.70;;;;;;;;;;5053747;28;20040;-84
2023/12/06 08:07:36;;;;;;;29.02;19.38;;;;;;;;;;5070785;28;20052;-84
2023/12/06 08:10:25;;;;;;;27.48;19.25;;;;;;;;;;5069589;28;20051;-84
2023/12/06 08:12:49;;;;;;;28.23;19.05;;;;;;;;;;5064002;28;20112;-84
2023/12/06 08:15:15;;;;;;;25.65;18.48;;;;;;;;;;5070387;28;20079;-84
2023/12/06 08:17:41;;;;;;;25.85;18.45;;;;;;;;;;5071037;28;20155;-84
2023/12/06 08:20:10;;;;;;;24.83;18.35;;;;;;;;;;5054541;28;20135;-84
2023/12/06 08:22:37;;;;;;;25.83;18.42;;;;;;;;;;5053610;28;20092;-84
2023/12/06 08:25:03;;;;;;;28.63;18.77;;;;;;;;;;5064479;28;20469;-84
2023/12/06 08:27:29;;;;;;;28.60;18.23;;;;;;;;;;5050957;28;20091;-84
2023/12/06 08:29:56;;;;;;;25.92;18.70;;;;;;;;;;5067289;28;20100;-85
2023/12/06 08:32:22;;;;;;;26.90;18.90;;;;;;;;;;5062941;28;20048;-84
2023/12/06 08:34:49;;;;;;;24.65;18.15;;;;;;;;;;5060959;28;20486;-84
2023/12/06 08:37:15;;;;;;;28.73;18.92;;;;;;;;;;5069875;28;20071;-84
2023/12/06 08:39:41;;;;;;;26.42;18.50;;;;;;;;;;5064916;28;20036;-85
2023/12/06 08:42:09;;;;;;;27.02;18.63;;;;;;;;;;5050560;28;20044;-84
2023/12/06 08:44:35;;;;;;;27.10;18.60;;;;;;;;;;5050218;28;20498;-81
2023/12/06 08:47:02;;;;;;;29.25;19.17;;;;;;;;;;5053086;28;20028;-83
2023/12/06 08:49:28;;;;;;;26.20;19.05;;;;;;;;;;5068173;28;20044;-83
2023/12/06 08:51:55;;;;;;;28.88;19.80;;;;;;;;;;5067105;28;20044;-83
2023/12/06 08:54:23;;;;;;;28.38;18.92;;;;;;;;;;5053486;28;20057;-83
2023/12/06 08:56:49;;;;;;;23.75;17.00;;;;;;;;;;5070531;28;20439;-84
2023/12/06 08:59:15;;;;;;;24.27;17.70;;;;;;;;;;5070396;28;20051;-83
2023/12/06 09:01:41;;;;;;;25.73;17.25;;;;;;;;;;5063543;28;20054;-83
2023/12/06 09:04:09;;;;;;;24.35;17.00;;;;;;;;;;5069321;28;20052;-82
2023/12/06 09:06:35;;;;;;;27.35;18.42;;;;;;;;;;5048644;28;20071;-83
2023/12/06 09:09:04;;;;;;;24.35;17.13;;;;;;;;;;5044218;28;20044;-83
2023/12/06 09:11:30;;;;;;;23.98;17.67;;;;;;;;;;5061635;28;20055;-86
2023/12/06 09:13:56;;;;;;;27.83;18.60;;;;;;;;;;5051697;28;20052;-85
2023/12/06 09:16:22;;;;;;;25.85;17.42;;;;;;;;;;5068749;28;20782;-86
2023/12/06 09:18:49;;;;;;;25.02;17.15;;;;;;;;;;5049231;28;20123;-87
2023/12/06 09:21:15;;;;;;;24.30;17.27;;;;;;;;;;5066074;28;20044;-87
2023/12/06 09:23:43;;;;;;;26.23;17.58;;;;;;;;;;5050569;28;20087;-87
2023/12/06 09:26:10;;;;;;;22.45;17.52;;;;;;;;;;5062536;28;20071;-87
2023/12/06 09:28:38;;;;;;;25.23;16.83;;;;;;;;;;5052459;28;20055;-87
2023/12/06 09:31:05;;;;;;;25.20;17.70;;;;;;;;;;5052856;28;20123;-87
2023/12/06 09:33:31;;;;;;;25.45;17.48;;;;;;;;;;5053218;28;20044;-87
2023/12/06 09:35:57;;;;;;;26.20;17.50;;;;;;;;;;5052693;28;20075;-87
2023/12/06 09:38:23;;;;;;;24.38;16.98;;;;;;;;;;5069464;28;20792;-87
2023/12/06 09:40:49;;;;;;;23.70;17.20;;;;;;;;;;5036422;28;20076;-86
2023/12/06 09:43:17;;;;;;;23.88;16.73;;;;;;;;;;5057894;28;20047;-87
2023/12/06 09:45:45;;;;;;;23.42;18.17;;;;;;;;;;5068803;28;20154;-86
2023/12/06 09:48:11;;;;;;;24.70;18.00;;;;;;;;;;5052724;28;20075;-86
2023/12/06 09:50:37;;;;;;;20.73;16.90;;;;;;;;;;5053203;28;20133;-86
2023/12/06 09:53:03;;;;;;;26.83;17.42;;;;;;;;;;5046542;28;20044;-86
2023/12/06 09:55:35;;;;;;;25.27;17.25;;;;;;;;;;5066082;28;20057;-84
2023/12/06 09:58:01;;;;;;;24.05;16.38;;;;;;;;;;5055819;28;20044;-86
2023/12/06 10:00:27;;;;;;;24.88;15.45;;;;;;;;;;5065607;28;20048;-86
2023/12/06 10:02:54;;;;;;;22.50;16.15;;;;;;;;;;5066885;28;20048;-85
2023/12/06 10:05:20;;;;;;;24.80;17.02;;;;;;;;;;5065347;28;20049;-86
2023/12/06 10:07:46;;;;;;;23.90;16.77;;;;;;;;;;5048526;28;20125;-83
2023/12/06 10:10:16;;;;;;;21.75;16.35;;;;;;;;;;5067560;28;20052;-83
2023/12/06 10:12:55;;;;;;;27.33;17.70;;;;;;;;;;5080239;28;20040;-83
2023/12/06 10:15:22;;;;;;;23.85;18.35;;;;;;;;;;5065879;28;20051;-84
2023/12/06 10:17:48;;;;;;;23.70;17.10;;;;;;;;;;5033024;28;20087;-82
2023/12/06 10:20:14;;;;;;;27.85;17.00;;;;;;;;;;5048202;28;20063;-82
2023/12/06 10:22:41;;;;;;;23.65;16.10;;;;;;;;;;5046903;28;20060;-81
2023/12/06 10:25:08;;;;;;;22.90;17.35;;;;;;;;;;5085130;28;20556;-83
2023/12/06 10:27:35;;;;;;;24.23;17.42;;;;;;;;;;5053959;28;20047;-86
2023/12/06 10:30:02;;;;;;;22.85;15.70;;;;;;;;;;5051910;28;20047;-84
2023/12/06 10:32:29;;;;;;;24.55;17.02;;;;;;;;;;5051061;28;20051;-85
2023/12/06 10:34:58;;;;;;;23.42;16.17;;;;;;;;;;5053391;28;20047;-80
2023/12/06 10:37:27;;;;;;;23.13;16.23;;;;;;;;;;5054705;28;20044;-88
2023/12/06 10:39:55;;;;;;;24.65;16.35;;;;;;;;;;5041529;28;20119;-89
2023/12/06 10:42:26;;;;;;;22.58;16.90;;;;;;;;;;5074383;28;20089;-89
2023/12/06 10:44:54;;;;;;;21.48;16.17;;;;;;;;;;5074810;28;20059;-88
2023/12/06 10:47:20;;;;;;;24.55;16.73;;;;;;;;;;5073714;28;20135;-88
2023/12/06 10:49:50;;;;;;;24.17;16.13;;;;;;;;;;5073180;28;20048;-87
2023/12/06 10:52:17;;;;;;;23.48;16.23;;;;;;;;;;5057871;28;20040;-89
2023/12/06 10:54:47;;;;;;;22.77;16.02;;;;;;;;;;5055701;28;20088;-89
2023/12/06 10:57:13;;;;;;;21.67;15.43;;;;;;;;;;5037245;28;20145;-88
2023/12/06 10:59:40;;;;;;;25.15;16.40;;;;;;;;;;5053721;28;20049;-87
2023/12/06 11:02:10;;;;;;;23.05;16.67;;;;;;;;;;5053787;28;20041;-89
2023/12/06 11:04:39;;;;;;;22.08;16.02;;;;;;;;;;5054105;28;20456;-89
2023/12/06 11:07:10;;;;;;;20.27;15.48;;;;;;;;;;5052675;28;20757;-87
2023/12/06 11:09:50;;;;;;;22.42;15.13;;;;;;;;;;5055195;28;20146;-87
2023/12/06 11:12:28;;;;;;;22.60;15.50;;;;;;;;;;5080067;28;20108;-89
2023/12/06 11:14:55;;;;;;;20.30;15.90;;;;;;;;;;5057309;28;20063;-90
2023/12/06 11:17:24;;;;;;;21.52;15.80;;;;;;;;;;5039836;28;20493;-88
2023/12/06 11:19:50;;;;;;;20.55;15.45;;;;;;;;;;5046180;28;20072;-88
2023/12/06 11:22:16;;;;;;;21.08;15.65;;;;;;;;;;5069899;28;20131;-87
2023/12/06 11:24:43;;;;;;;29.30;21.20;;;;;;;;;;5060269;28;20048;-85
2023/12/06 11:27:09;;;;;;;23.50;16.02;;;;;;;;;;5071430;28;20814;-86
2023/12/06 11:29:35;;;;;;;22.40;16.38;;;;;;;;;;5071221;28;20063;-85
2023/12/06 11:32:02;;;;;;;20.73;15.90;;;;;;;;;;5047442;28;20520;-85
2023/12/06 11:34:36;;;;;;;22.90;16.30;;;;;;;;;;5044647;28;20166;-84
2023/12/06 11:37:06;;;;;;;23.20;14.77;;;;;;;;;;5054117;28;20050;-85
2023/12/06 11:39:32;;;;;;;21.92;15.60;;;;;;;;;;5067823;28;20109;-84
2023/12/06 11:41:59;;;;;;;21.95;16.15;;;;;;;;;;5043735;28;20051;-85
2023/12/06 11:44:25;;;;;;;21.10;14.75;;;;;;;;;;5051252;28;20048;-86
2023/12/06 11:46:52;;;;;;;21.30;15.60;;;;;;;;;;5035640;28;20068;-85
2023/12/06 11:49:18;;;;;;;19.38;15.25;;;;;;;;;;5071968;28;20048;-87
2023/12/06 11:51:44;;;;;;;18.90;14.00;;;;;;;;;;5072162;28;20048;-86
2023/12/06 11:54:12;;;;;;;28.42;20.00;;;;;;;;;;5063590;28;20044;-84
2023/12/06 11:56:38;;;;;;;19.23;13.57;;;;;;;;;;5034575;28;20040;-88
2023/12/06 11:59:05;;;;;;;18.90;14.23;;;;;;;;;;5084501;28;20079;-86
2023/12/06 12:01:32;;;;;;;18.63;14.07;;;;;;;;;;5034424;28;20226;-85
2023/12/06 12:03:59;;;;;;;17.73;13.38;;;;;;;;;;5084962;28;20055;-86
2023/12/06 12:06:27;;;;;;;18.90;14.18;;;;;;;;;;5085107;28;20044;-82
2023/12/06 12:08:53;;;;;;;19.90;13.77;;;;;;;;;;5072070;28;20048;-86
2023/12/06 12:11:19;;;;;;;20.83;14.48;;;;;;;;;;5051697;28;20052;-86
2023/12/06 12:13:45;;;;;;;19.65;13.30;;;;;;;;;;5034907;28;20059;-85
2023/12/06 12:16:16;;;;;;;19.52;14.23;;;;;;;;;;5053960;28;20178;-87
2023/12/06 12:18:42;;;;;;;18.63;14.15;;;;;;;;;;5071268;28;20048;-85
2023/12/06 12:21:19;;;;;;;17.13;13.48;;;;;;;;;;5071214;28;20098;-87
2023/12/06 12:23:48;;;;;;;16.92;12.85;;;;;;;;;;5070030;28;20047;-85
2023/12/06 12:26:15;;;;;;;18.98;13.32;;;;;;;;;;5043350;28;20041;-83
2023/12/06 12:28:41;;;;;;;18.90;13.15;;;;;;;;;;5059733;28;20497;-85
2023/12/06 12:31:11;;;;;;;22.02;13.80;;;;;;;;;;5068152;28;20052;-86
2023/12/06 12:33:37;;;;;;;21.08;15.07;;;;;;;;;;5051653;28;20074;-86
2023/12/06 12:36:04;;;;;;;20.10;13.55;;;;;;;;;;5070983;28;20044;-85
2023/12/06 12:38:30;;;;;;;17.75;12.52;;;;;;;;;;5053666;28;20047;-86
2023/12/06 12:40:56;;;;;;;16.77;12.05;;;;;;;;;;5071494;28;20048;-86
2023/12/06 12:43:22;;;;;;;18.88;12.75;;;;;;;;;;5073969;28;20079;-88
2023/12/06 12:45:48;;;;;;;24.63;12.75;;;;;;;;;;5073149;28;20131;-88
2023/12/06 12:48:15;;;;;;;18.30;12.73;;;;;;;;;;5055047;28;20131;-84
2023/12/06 12:50:41;;;;;;;17.33;11.68;;;;;;;;;;5053090;28;20044;-85
2023/12/06 12:53:07;;;;;;;16.45;12.55;;;;;;;;;;5066941;28;20155;-86
2023/12/06 12:55:33;;;;;;;15.20;12.52;;;;;;;;;;5048791;28;20263;-86
2023/12/06 12:58:02;;;;;;;15.13;11.75;;;;;;;;;;5049748;28;20075;-85
2023/12/06 13:00:32;;;;;;;15.48;11.55;;;;;;;;;;5068343;28;20119;-85
2023/12/06 13:02:59;;;;;;;16.40;12.10;;;;;;;;;;5052232;28;20048;-86
2023/12/06 13:05:27;;;;;;;15.30;11.32;;;;;;;;;;5051552;28;20048;-85
2023/12/06 13:07:57;;;;;;;18.70;12.20;;;;;;;;;;5062292;28;20132;-85
2023/12/06 13:10:28;;;;;;;14.73;12.38;;;;;;;;;;5059052;28;20078;-83
2023/12/06 13:12:54;;;;;;;17.20;11.93;;;;;;;;;;5058795;28;20820;-85
2023/12/06 13:15:20;;;;;;;17.80;12.02;;;;;;;;;;5088533;28;20401;-85
2023/12/06 13:17:46;;;;;;;15.52;11.80;;;;;;;;;;5069015;28;20040;-84
2023/12/06 13:20:12;;;;;;;17.08;13.70;;;;;;;;;;5069717;28;20218;-84
2023/12/06 13:22:38;;;;;;;15.65;12.60;;;;;;;;;;5060254;28;20121;-84
2023/12/06 13:25:05;;;;;;;17.08;12.23;;;;;;;;;;5059791;28;20131;-83
2023/12/06 13:27:31;;;;;;;16.17;11.93;;;;;;;;;;5069130;28;20075;-83
2023/12/06 13:29:57;;;;;;;16.80;11.38;;;;;;;;;;5053049;28;20050;-83
2023/12/06 13:32:23;;;;;;;14.52;12.13;;;;;;;;;;5068646;28;20567;-83
2023/12/06 13:34:49;;;;;;;14.95;11.32;;;;;;;;;;5087454;28;20071;-84
2023/12/06 13:37:16;;;;;;;14.10;10.73;;;;;;;;;;5064322;28;20067;-83
2023/12/06 13:39:43;;;;;;;15.85;11.20;;;;;;;;;;5050143;28;20071;-83
2023/12/06 13:42:10;;;;;;;14.68;11.30;;;;;;;;;;5060981;28;20131;-86
2023/12/06 13:44:38;;;;;;;17.58;12.45;;;;;;;;;;5069788;28;20064;-86
2023/12/06 13:47:04;;;;;;;14.95;10.85;;;;;;;;;;5068775;28;20064;-89
2023/12/06 13:49:30;;;;;;;16.58;11.13;;;;;;;;;;5066962;28;20110;-86
2023/12/06 13:51:57;;;;;;;17.52;14.00;;;;;;;;;;5067010;28;20052;-86
2023/12/06 13:54:23;;;;;;;15.90;11.00;;;;;;;;;;5043618;28;20047;-87
2023/12/06 13:56:49;;;;;;;15.77;10.63;;;;;;;;;;5048346;28;20700;-86
2023/12/06 13:59:17;;;;;;;14.23;10.15;;;;;;;;;;5070437;28;20692;-87
2023/12/06 14:01:44;;;;;;;14.23;11.43;;;;;;;;;;5058903;28;20047;-91
2023/12/06 14:04:10;;;;;;;14.65;10.43;;;;;;;;;;5059519;28;20055;-88
2023/12/06 14:06:41;;;;;;;14.63;10.38;;;;;;;;;;5075603;28;20043;-88
2023/12/06 14:09:08;;;;;;;13.98;10.25;;;;;;;;;;5075442;28;20044;-88
2023/12/06 14:11:34;;;;;;;14.38;10.65;;;;;;;;;;5044096;28;20097;-91
2023/12/06 14:14:00;;;;;;;12.93;10.23;;;;;;;;;;5064355;28;20041;-89